Dupage Airport
KDPA : now visible

Airfield :











YOU CAN JOIN US ON...

 
LOGIN :

Register | Disclaimer

   EN    FR    IT 

 









Legend :    VFR   Marginal VFR   IFR   Intensive IFR   Very Intensive IFR
Visi :
Ceiling :
>= 8 km
>= 3000ft
5 to 8 km
1000 to 3000 ft
1500m to 5 km
500 to 1000 ft
800 to 1500m
200 to 500 ft
< 800m
< 200 ft
Symbols :   Thunderstorms  Fog  Heavy snow  Heavy precipitations  Wind > 20 kt






- Airport Elevation : 759 ft


KDPA - Dupage

CURRENT METAR :
  • 081652Z 20006KT 10SM CLR 18/10 A2973 RMK AO2 SLP065 T01830100

EXPIRED METARs :
  • 081552Z 00000KT 8SM CLR 16/11 A2977 RMK AO2 SLP078 T01560106
  • 081452Z 00000KT 6SM HZ FEW010 13/11 A2977 RMK AO2 SLP080 T01330106 51007

TAF KDPA
Valid from the 08 at 18:00 until the 09 at 18:00 UTC


081730Z 0818/0918 16005KT P6SM FEW025 BKN060
FM082130 33012G18KT 6SM -SHRA SCT025 OVC050
TEMPO 0822/0823 33020G35KT 3SM TSRA SCT010 OVC025CB
FM090400 29014G22KT P6SM SKC
FM091400 30022G35KT P6SM SCT050



MET'MAP, your aeronautical weather chart ! - Copyright ORBIFLY December 2007 - Disclaimer

ORBIFLY MET'MAP TEAM :

Programming & Development : Alexandra Zaïnal
Concept & original design : Baudouin d'Aumeries
Assistance for programming : Marc-Olivier Méhu
Technical & hardware support : Manuel Goepfert

Contact : metmap@orbifly.com




SOURCES & CREDITS :

   NOAA       Earth
Advisory